Time;durP1;ratioP1;P1;durP2;ratioP2;P2;SDS_P1;SDS_P2;PMS_P1;PMS_P2;Temp;Humidity;BMP_temperature;BMP_pressure;BME280_temperature;BME280_humidity;BME280_pressure;Samples;Min_cycle;Max_cycle;Signal;HPM_P1;HPM_P2
2022/09/05 00:00:07;;;;;;;7.30;6.53;;;17.70;96.60;;;;;;5065510;28;20135;-66
2022/09/05 00:02:39;;;;;;;9.65;5.65;;;17.70;96.60;;;;;;5042253;28;20040;-65
2022/09/05 00:05:41;;;;;;;7.50;5.78;;;17.70;96.70;;;;;;5059343;28;20054;-66
2022/09/05 00:08:27;;;;;;;9.63;5.97;;;17.70;96.90;;;;;;5061550;28;20095;-67
2022/09/05 00:10:56;;;;;;;7.30;5.25;;;17.70;96.90;;;;;;5057896;28;20045;-66
2022/09/05 00:13:30;;;;;;;7.78;5.63;;;17.70;96.80;;;;;;5060416;28;20033;-66
2022/09/05 00:16:06;;;;;;;5.63;5.10;;;17.70;96.90;;;;;;5062131;28;20041;-66
2022/09/05 00:18:42;;;;;;;7.63;5.50;;;17.60;96.90;;;;;;5062628;28;20044;-66
2022/09/05 00:21:11;;;;;;;7.93;5.53;;;17.60;97.00;;;;;;5059507;28;20039;-67
2022/09/05 00:23:46;;;;;;;6.13;5.30;;;17.60;97.10;;;;;;5045626;28;20158;-66
2022/09/05 00:26:31;;;;;;;7.15;5.57;;;17.60;97.20;;;;;;5064457;28;20119;-66
2022/09/05 00:29:16;;;;;;;6.55;5.13;;;17.60;97.30;;;;;;5057962;28;20033;-66
2022/09/05 00:32:12;;;;;;;8.88;5.50;;;17.60;97.30;;;;;;5061209;28;20053;-67
2022/09/05 00:35:18;;;;;;;7.82;5.40;;;17.50;97.40;;;;;;5062819;28;20258;-66
2022/09/05 00:37:47;;;;;;;9.57;6.28;;;17.50;97.40;;;;;;5059861;28;20043;-66
2022/09/05 00:40:15;;;;;;;9.07;6.30;;;17.50;97.30;;;;;;5064404;28;20094;-67
2022/09/05 00:42:43;;;;;;;9.88;6.93;;;17.40;97.20;;;;;;5063729;28;20059;-67
2022/09/05 00:45:14;;;;;;;7.90;7.10;;;17.40;97.40;;;;;;5062446;28;20927;-66
2022/09/05 00:47:53;;;;;;;9.18;6.78;;;17.40;97.50;;;;;;5066847;28;20047;-66
2022/09/05 00:50:49;;;;;;;7.35;6.47;;;17.30;97.90;;;;;;5064735;28;20044;-65
2022/09/05 00:53:45;;;;;;;9.30;6.97;;;17.30;97.90;;;;;;5062428;28;20116;-66
2022/09/05 00:56:26;;;;;;;8.07;6.85;;;17.20;98.10;;;;;;5055970;28;20083;-67
2022/09/05 00:59:39;;;;;;;12.00;7.22;;;17.20;98.30;;;;;;5064615;28;20386;-66
2022/09/05 01:02:30;;;;;;;8.80;7.20;;;17.10;98.30;;;;;;5047417;28;20286;-66
2022/09/05 01:05:26;;;;;;;7.60;6.80;;;17.10;98.60;;;;;;5063924;28;20048;-67
2022/09/05 01:08:25;;;;;;;8.20;6.88;;;17.00;98.60;;;;;;5063319;28;20443;-67
2022/09/05 01:11:00;;;;;;;8.32;7.03;;;17.10;98.80;;;;;;5075826;28;20095;-66
2022/09/05 01:13:46;;;;;;;8.68;7.88;;;17.00;98.70;;;;;;5065838;28;20120;-66
2022/09/05 01:16:17;;;;;;;8.25;7.32;;;16.90;99.20;;;;;;5066609;28;20420;-65
2022/09/05 01:19:14;;;;;;;8.03;7.23;;;16.90;99.00;;;;;;5067307;28;20048;-66
2022/09/05 01:22:06;;;;;;;8.50;7.20;;;16.90;99.20;;;;;;5064419;28;20742;-67
2022/09/05 01:24:39;;;;;;;7.53;6.82;;;16.80;99.40;;;;;;5064961;28;20037;-66
2022/09/05 01:27:39;;;;;;;7.88;6.95;;;16.80;99.50;;;;;;5060640;28;20131;-66
2022/09/05 01:30:18;;;;;;;10.52;7.75;;;16.80;99.70;;;;;;5063387;28;20078;-66
2022/09/05 01:32:53;;;;;;;8.43;7.43;;;16.70;99.80;;;;;;5064072;28;20059;-67
2022/09/05 01:35:40;;;;;;;8.25;7.45;;;16.70;99.80;;;;;;5066185;28;20045;-66
2022/09/05 01:38:33;;;;;;;7.60;6.82;;;16.70;99.80;;;;;;5047461;28;20044;-66
2022/09/05 01:41:29;;;;;;;8.32;7.53;;;16.70;99.80;;;;;;5063139;28;20040;-66
2022/09/05 01:44:29;;;;;;;9.80;8.13;;;16.70;99.90;;;;;;5065710;28;20152;-67
2022/09/05 01:47:16;;;;;;;7.72;6.93;;;16.70;99.90;;;;;;5063147;28;20056;-67
2022/09/05 01:49:45;;;;;;;11.02;8.40;;;16.70;99.90;;;;;;5065956;28;20041;-66
2022/09/05 01:52:17;;;;;;;12.23;8.07;;;16.60;99.90;;;;;;5064597;28;20123;-66
2022/09/05 01:54:59;;;;;;;9.50;7.78;;;16.60;99.90;;;;;;5063894;28;20049;-67
2022/09/05 01:57:43;;;;;;;9.13;7.28;;;16.60;99.90;;;;;;5077420;28;20028;-66
2022/09/05 02:00:12;;;;;;;10.80;8.50;;;16.50;99.90;;;;;;5062943;28;20406;-66
2022/09/05 02:03:00;;;;;;;9.07;8.05;;;16.50;99.90;;;;;;5048255;28;20033;-66
2022/09/05 02:05:40;;;;;;;11.18;8.48;;;16.50;99.90;;;;;;5064004;28;20037;-66
2022/09/05 02:08:18;;;;;;;11.07;8.48;;;16.40;99.90;;;;;;5047405;28;20049;-66
2022/09/05 02:11:05;;;;;;;8.70;7.80;;;16.40;99.90;;;;;;5063451;28;20064;-66
2022/09/05 02:13:34;;;;;;;10.57;8.07;;;16.40;99.90;;;;;;5062307;28;20145;-66
2022/09/05 02:16:07;;;;;;;10.50;8.00;;;16.30;99.90;;;;;;5066911;28;20048;-66
2022/09/05 02:18:35;;;;;;;11.40;8.25;;;16.30;99.90;;;;;;5062127;28;20032;-67
2022/09/05 02:21:07;;;;;;;8.88;7.97;;;16.30;99.90;;;;;;5047174;28;20044;-66
2022/09/05 02:23:45;;;;;;;9.07;8.02;;;16.20;99.90;;;;;;5064225;28;20123;-66
2022/09/05 02:26:24;;;;;;;9.75;8.10;;;16.20;99.90;;;;;;5064695;28;20048;-67
2022/09/05 02:29:01;;;;;;;11.10;8.93;;;16.20;99.90;;;;;;5061827;28;20043;-67
2022/09/05 02:31:41;;;;;;;12.27;8.32;;;16.10;99.90;;;;;;5065510;28;20056;-66
2022/09/05 02:34:17;;;;;;;12.45;8.20;;;16.10;99.90;;;;;;5062439;28;20052;-66
2022/09/05 02:36:47;;;;;;;10.10;8.73;;;16.10;99.90;;;;;;5064059;28;20119;-67
2022/09/05 02:39:25;;;;;;;11.18;8.75;;;16.10;99.90;;;;;;5062430;28;20047;-67
2022/09/05 02:42:19;;;;;;;8.48;7.70;;;16.00;99.90;;;;;;5063281;28;20039;-66
2022/09/05 02:44:56;;;;;;;14.05;9.15;;;16.00;99.90;;;;;;5062398;28;20093;-66
2022/09/05 02:47:50;;;;;;;12.90;9.43;;;16.00;99.90;;;;;;5064232;28;20049;-66
2022/09/05 02:50:51;;;;;;;9.57;8.57;;;16.00;99.90;;;;;;5065865;28;20298;-67
2022/09/05 02:53:20;;;;;;;9.60;8.70;;;16.00;99.90;;;;;;5060228;28;20125;-66
2022/09/05 02:56:26;;;;;;;11.80;9.20;;;15.90;99.90;;;;;;5063077;28;20044;-66
2022/09/05 02:59:05;;;;;;;9.57;8.57;;;15.90;99.90;;;;;;5062801;28;20055;-66
2022/09/05 03:01:36;;;;;;;10.27;9.13;;;15.80;99.90;;;;;;5064505;28;20040;-66
2022/09/05 03:04:05;;;;;;;11.82;8.82;;;15.80;99.90;;;;;;5074122;28;20410;-65
2022/09/05 03:06:35;;;;;;;10.43;8.90;;;16.10;99.90;;;;;;5064978;28;20075;-67
2022/09/05 03:09:16;;;;;;;13.52;9.05;;;15.70;99.90;;;;;;5063121;28;20186;-67
2022/09/05 03:12:29;;;;;;;9.63;8.73;;;15.70;99.90;;;;;;5066425;28;20408;-67
2022/09/05 03:15:27;;;;;;;10.23;9.10;;;15.70;99.90;;;;;;5027660;28;20052;-66
2022/09/05 03:18:25;;;;;;;10.10;8.82;;;15.60;99.90;;;;;;5036233;28;20045;-66
2022/09/05 03:20:50;;;;;;;10.55;9.55;;;15.60;99.90;;;;;;5040450;28;20055;-66
2022/09/05 03:23:57;;;;;;;11.38;9.40;;;15.60;99.90;;;;;;5066123;28;20040;-66
2022/09/05 03:26:47;;;;;;;9.65;8.65;;;15.60;99.90;;;;;;5022276;28;20121;-66
2022/09/05 03:29:18;;;;;;;11.93;9.45;;;15.50;99.90;;;;;;5046627;28;20052;-65
2022/09/05 03:31:58;;;;;;;9.97;8.97;;;15.50;99.90;;;;;;5074452;28;20514;-67
2022/09/05 03:34:38;;;;;;;10.73;9.63;;;15.40;99.90;;;;;;5061339;28;20823;-66
2022/09/05 03:37:26;;;;;;;9.63;8.63;;;15.40;99.90;;;;;;5064480;28;20048;-65
2022/09/05 03:39:54;;;;;;;11.10;9.25;;;15.40;99.90;;;;;;5065399;28;20058;-66
2022/09/05 03:42:42;;;;;;;10.80;8.95;;;15.40;99.90;;;;;;5065501;28;20036;-66
2022/09/05 03:45:40;;;;;;;9.50;8.63;;;15.40;99.90;;;;;;5060729;28;20041;-67
2022/09/05 03:48:26;;;;;;;11.02;9.75;;;15.40;99.90;;;;;;5003196;28;20057;-65
2022/09/05 03:51:00;;;;;;;10.85;9.80;;;15.30;99.90;;;;;;5060822;28;20450;-66
2022/09/05 03:53:54;;;;;;;10.20;9.18;;;15.30;99.90;;;;;;5064677;28;20052;-66
2022/09/05 03:56:28;;;;;;;13.45;10.02;;;15.20;99.90;;;;;;5064845;28;20036;-67
2022/09/05 03:59:28;;;;;;;12.35;11.00;;;15.20;99.90;;;;;;5063177;28;20123;-66
2022/09/05 04:02:03;;;;;;;11.27;10.23;;;15.20;99.90;;;;;;5094686;28;20033;-65
2022/09/05 04:04:32;;;;;;;11.80;10.60;;;15.20;99.90;;;;;;5077177;28;20036;-67
2022/09/05 04:07:01;;;;;;;12.80;11.00;;;15.20;99.90;;;;;;5077306;28;20112;-66
2022/09/05 04:09:38;;;;;;;11.57;10.43;;;15.20;99.90;;;;;;5077806;28;20044;-66
2022/09/05 04:12:27;;;;;;;10.75;9.73;;;15.20;99.90;;;;;;5067252;28;20115;-65
2022/09/05 04:15:16;;;;;;;11.85;10.05;;;15.10;99.90;;;;;;5047122;28;20563;-66
2022/09/05 04:17:46;;;;;;;11.52;9.75;;;15.10;99.90;;;;;;5061373;28;20892;-66
2022/09/05 04:20:27;;;;;;;10.95;9.95;;;15.10;99.90;;;;;;5067118;28;20032;-66
2022/09/05 04:23:29;;;;;;;11.68;9.90;;;15.10;99.90;;;;;;5052423;28;20041;-65
2022/09/05 04:26:09;;;;;;;11.52;10.00;;;15.00;99.90;;;;;;5066239;28;20070;-66
2022/09/05 04:28:54;;;;;;;10.73;9.63;;;15.00;99.90;;;;;;5066246;28;20067;-66
2022/09/05 04:31:29;;;;;;;13.93;10.07;;;15.00;99.90;;;;;;5067911;28;20197;-66
2022/09/05 04:34:44;;;;;;;11.93;10.73;;;15.00;99.90;;;;;;5064687;28;20087;-65
2022/09/05 04:37:40;;;;;;;11.18;10.07;;;15.00;99.90;;;;;;5048414;28;20045;-66
2022/09/05 04:40:30;;;;;;;11.65;10.40;;;14.90;99.90;;;;;;5067091;28;20092;-67
2022/09/05 04:43:27;;;;;;;11.73;10.52;;;14.90;99.90;;;;;;5063612;28;20041;-66
2022/09/05 04:46:09;;;;;;;14.45;11.30;;;14.80;99.90;;;;;;5047104;28;20139;-66
2022/09/05 04:48:55;;;;;;;12.30;11.07;;;14.80;99.90;;;;;;5063809;28;20043;-66
2022/09/05 04:51:39;;;;;;;11.98;10.77;;;14.80;99.90;;;;;;5064703;28;20584;-66
2022/09/05 04:54:12;;;;;;;14.85;11.68;;;14.70;99.90;;;;;;5071877;28;20058;-66
2022/09/05 04:56:43;;;;;;;14.23;10.80;;;14.70;99.90;;;;;;5063018;28;20047;-67
2022/09/05 04:59:22;;;;;;;14.40;11.32;;;14.70;99.90;;;;;;5066560;28;20044;-66
2022/09/05 05:02:05;;;;;;;13.23;11.70;;;14.70;99.90;;;;;;5068727;28;20039;-66
2022/09/05 05:04:31;;;;;;;15.25;11.98;;;14.70;99.90;;;;;;5070475;28;20107;-66
2022/09/05 05:07:16;;;;;;;14.10;11.70;;;14.70;99.90;;;;;;5068869;28;20063;-66
2022/09/05 05:09:47;;;;;;;13.73;12.05;;;14.70;99.90;;;;;;5072639;28;20045;-67
2022/09/05 05:12:26;;;;;;;12.70;11.40;;;14.60;99.90;;;;;;5069373;28;20037;-66
2022/09/05 05:15:00;;;;;;;14.75;11.65;;;14.60;99.90;;;;;;5059146;28;20507;-66
2022/09/05 05:17:51;;;;;;;12.85;11.25;;;14.60;99.90;;;;;;5062832;28;20044;-66
2022/09/05 05:20:40;;;;;;;15.07;12.27;;;14.60;99.90;;;;;;5061159;28;20033;-66
2022/09/05 05:23:14;;;;;;;13.02;11.68;;;14.60;99.90;;;;;;5063368;28;20040;-66
2022/09/05 05:25:47;;;;;;;13.13;11.77;;;14.60;99.90;;;;;;5066004;28;20037;-67
2022/09/05 05:28:27;;;;;;;17.10;13.35;;;14.60;99.90;;;;;;5074172;28;20037;-67
2022/09/05 05:30:55;;;;;;;13.75;12.13;;;14.70;99.90;;;;;;5045550;28;20044;-66
2022/09/05 05:33:33;;;;;;;18.20;12.63;;;14.70;99.90;;;;;;5043397;28;20052;-66
2022/09/05 05:36:03;;;;;;;14.57;12.65;;;14.70;99.90;;;;;;5063516;28;20094;-66
2022/09/05 05:38:47;;;;;;;14.27;12.88;;;14.70;99.90;;;;;;5063725;28;20040;-66
2022/09/05 05:41:41;;;;;;;13.30;11.90;;;14.70;99.90;;;;;;5062909;28;20032;-67
2022/09/05 05:44:17;;;;;;;14.00;12.50;;;14.70;99.90;;;;;;5054322;28;20044;-67
2022/09/05 05:47:15;;;;;;;17.50;12.25;;;14.70;99.90;;;;;;5069800;28;20040;-66
2022/09/05 05:50:06;;;;;;;13.35;11.80;;;14.80;99.90;;;;;;5065865;28;20048;-66
2022/09/05 05:52:56;;;;;;;16.42;12.88;;;14.80;99.90;;;;;;5064608;28;20064;-66
2022/09/05 05:55:34;;;;;;;13.98;12.55;;;14.80;99.90;;;;;;5067466;28;20051;-66
2022/09/05 05:58:24;;;;;;;19.52;12.93;;;14.80;99.90;;;;;;5061487;28;20032;-66
2022/09/05 06:01:10;;;;;;;16.88;12.85;;;14.90;99.90;;;;;;5077437;28;20045;-65
2022/09/05 06:04:04;;;;;;;13.88;11.15;;;14.90;99.90;;;;;;5060740;28;20041;-66
2022/09/05 06:06:52;;;;;;;17.48;11.77;;;15.00;99.90;;;;;;5064266;28;20044;-65
2022/09/05 06:09:42;;;;;;;14.57;12.35;;;15.00;99.90;;;;;;5064029;28;20056;-66
2022/09/05 06:12:26;;;;;;;17.83;12.95;;;15.00;99.90;;;;;;5061600;28;20379;-66
2022/09/05 06:15:29;;;;;;;17.38;11.75;;;15.10;99.90;;;;;;5047668;28;20628;-66
2022/09/05 06:18:26;;;;;;;14.43;11.70;;;15.10;99.90;;;;;;5061041;28;20047;-66
2022/09/05 06:21:50;;;;;;;16.35;11.70;;;15.20;99.90;;;;;;5059251;28;20090;-66
2022/09/05 06:24:44;;;;;;;19.73;14.02;;;15.20;99.90;;;;;;5043538;28;20052;-66
2022/09/05 06:27:22;;;;;;;19.98;12.80;;;15.20;99.90;;;;;;5061923;28;20060;-66
2022/09/05 06:29:48;;;;;;;19.65;12.82;;;15.30;99.90;;;;;;5057760;28;20028;-65
2022/09/05 06:32:17;;;;;;;22.35;13.32;;;15.40;99.90;;;;;;5070292;28;20524;-66
2022/09/05 06:34:42;;;;;;;19.50;12.98;;;15.40;99.90;;;;;;5070142;28;20080;-66
2022/09/05 06:37:21;;;;;;;15.07;12.27;;;15.50;99.90;;;;;;5069926;28;20076;-66
2022/09/05 06:39:52;;;;;;;15.88;11.75;;;15.50;99.90;;;;;;5066830;28;20044;-67
2022/09/05 06:42:36;;;;;;;14.50;11.98;;;15.60;99.90;;;;;;5070426;28;20474;-66
2022/09/05 06:45:19;;;;;;;15.35;12.55;;;15.70;99.90;;;;;;5069876;28;20048;-66
2022/09/05 06:47:47;;;;;;;16.23;12.25;;;15.70;99.90;;;;;;5069574;28;20186;-66
2022/09/05 06:50:15;;;;;;;14.45;11.65;;;15.80;99.90;;;;;;5069873;28;20139;-66
2022/09/05 06:52:59;;;;;;;13.70;11.80;;;15.90;99.90;;;;;;5068999;28;20040;-66
2022/09/05 06:55:36;;;;;;;18.02;12.25;;;16.00;99.90;;;;;;5085428;28;20036;-65
2022/09/05 06:58:24;;;;;;;14.75;11.85;;;16.00;99.90;;;;;;5069396;28;20040;-66
2022/09/05 07:00:51;;;;;;;13.35;12.05;;;16.10;99.90;;;;;;5068194;28;20063;-66
2022/09/05 07:03:46;;;;;;;14.25;12.20;;;16.20;99.90;;;;;;5070384;28;20453;-65
2022/09/05 07:06:42;;;;;;;14.90;12.10;;;16.40;99.90;;;;;;5069686;28;20114;-66
2022/09/05 07:09:28;;;;;;;13.93;11.77;;;16.50;99.90;;;;;;5067198;28;20058;-66
2022/09/05 07:12:19;;;;;;;12.98;10.60;;;16.70;99.90;;;;;;5068937;28;20045;-67
2022/09/05 07:15:22;;;;;;;12.48;10.25;;;16.80;99.90;;;;;;5052340;28;20048;-65
2022/09/05 07:18:12;;;;;;;13.05;10.38;;;17.10;99.90;;;;;;5066072;28;20044;-66
2022/09/05 07:21:00;;;;;;;11.75;9.30;;;17.40;99.90;;;;;;5066729;28;20086;-66
2022/09/05 07:23:45;;;;;;;9.77;8.77;;;17.60;99.90;;;;;;5067598;28;20485;-67
2022/09/05 07:26:11;;;;;;;13.50;8.82;;;17.80;99.90;;;;;;5080544;28;20400;-66
2022/09/05 07:28:42;;;;;;;12.32;8.93;;;18.20;99.90;;;;;;5061292;28;20116;-67
2022/09/05 07:31:19;;;;;;;13.95;8.93;;;18.50;99.90;;;;;;5059018;28;20051;-67
2022/09/05 07:33:47;;;;;;;10.55;8.15;;;18.90;99.90;;;;;;5063805;28;20033;-67
2022/09/05 07:36:30;;;;;;;9.70;8.70;;;19.20;99.90;;;;;;5060189;28;20481;-66
2022/09/05 07:38:59;;;;;;;14.32;7.68;;;19.50;99.90;;;;;;5064215;28;20036;-67
2022/09/05 07:41:33;;;;;;;8.60;7.30;;;19.70;99.90;;;;;;5063433;28;20556;-68
2022/09/05 07:44:14;;;;;;;10.23;7.78;;;19.90;99.90;;;;;;5077081;28;20112;-68
2022/09/05 07:46:41;;;;;;;12.15;7.63;;;20.00;99.90;;;;;;5068278;28;20047;-67
2022/09/05 07:49:13;;;;;;;11.20;7.70;;;20.20;99.90;;;;;;5068404;28;20494;-67
2022/09/05 07:51:53;;;;;;;15.63;8.55;;;20.40;99.90;;;;;;5069193;28;20141;-67
2022/09/05 07:54:28;;;;;;;9.43;7.20;;;20.60;99.90;;;;;;5069039;28;20049;-67
2022/09/05 07:56:58;;;;;;;12.25;7.28;;;20.70;99.90;;;;;;5067020;28;20040;-67
2022/09/05 07:59:27;;;;;;;13.85;7.72;;;21.10;99.90;;;;;;5046699;28;20095;-68
2022/09/05 08:01:55;;;;;;;13.30;7.13;;;21.40;99.90;;;;;;5068447;28;20512;-67
2022/09/05 08:04:30;;;;;;;10.40;6.38;;;21.60;99.90;;;;;;5068225;28;20040;-67
2022/09/05 08:07:00;;;;;;;10.65;6.32;;;21.80;99.90;;;;;;5068326;28;20546;-67
2022/09/05 08:09:29;;;;;;;12.80;6.57;;;22.00;99.90;;;;;;5068371;28;20045;-68
2022/09/05 08:12:00;;;;;;;8.82;6.90;;;22.20;99.90;;;;;;5066231;28;20453;-67
2022/09/05 08:14:39;;;;;;;11.10;6.68;;;22.30;99.90;;;;;;5069361;28;20037;-67
2022/09/05 08:17:11;;;;;;;12.43;7.35;;;22.40;99.70;;;;;;5051105;28;20505;-67
2022/09/05 08:19:55;;;;;;;10.80;7.13;;;22.50;99.70;;;;;;5050526;28;20037;-67
2022/09/05 08:22:27;;;;;;;11.68;6.30;;;22.60;98.80;;;;;;5068335;28;20044;-67
2022/09/05 08:25:11;;;;;;;11.52;7.07;;;22.70;99.40;;;;;;5051819;28;20064;-67
2022/09/05 08:28:01;;;;;;;12.57;6.70;;;22.70;98.80;;;;;;5051515;28;20080;-68
2022/09/05 08:30:34;;;;;;;10.75;7.15;;;22.80;99.40;;;;;;5068688;28;20044;-68
2022/09/05 08:33:04;;;;;;;13.93;7.10;;;22.90;99.20;;;;;;5067621;28;20135;-67
2022/09/05 08:35:39;;;;;;;13.48;6.53;;;22.90;98.90;;;;;;5069119;28;20045;-68
2022/09/05 08:38:07;;;;;;;10.75;6.47;;;23.00;98.70;;;;;;5068591;28;20389;-68
2022/09/05 08:40:50;;;;;;;14.70;7.07;;;23.10;98.90;;;;;;5068740;28;20040;-68
2022/09/05 08:43:33;;;;;;;13.25;6.38;;;23.20;98.70;;;;;;5067961;28;20033;-68
2022/09/05 08:46:14;;;;;;;9.43;6.70;;;23.30;98.40;;;;;;5067979;28;20045;-68
2022/09/05 08:48:57;;;;;;;15.43;7.13;;;23.50;98.10;;;;;;5067467;28;20076;-68
2022/09/05 08:51:36;;;;;;;9.75;6.22;;;23.50;98.30;;;;;;5069327;28;20087;-68
2022/09/05 08:54:11;;;;;;;10.55;6.05;;;23.70;97.60;;;;;;5051177;28;20119;-68
2022/09/05 08:56:39;;;;;;;9.70;6.15;;;23.80;97.60;;;;;;5069453;28;20041;-68
2022/09/05 08:59:10;;;;;;;12.88;5.70;;;23.90;97.80;;;;;;5067765;28;20059;-68
2022/09/05 09:02:00;;;;;;;10.25;5.68;;;24.10;97.70;;;;;;5068132;28;20036;-68
2022/09/05 09:05:06;;;;;;;10.88;6.40;;;24.30;97.40;;;;;;5052564;28;20390;-67
2022/09/05 09:07:42;;;;;;;9.73;5.25;;;24.40;97.00;;;;;;5054414;28;20503;-67
2022/09/05 09:10:27;;;;;;;12.65;6.40;;;24.50;97.10;;;;;;5071661;28;20560;-66
2022/09/05 09:13:14;;;;;;;8.50;5.57;;;24.60;96.30;;;;;;5072594;28;20462;-67
2022/09/05 09:16:23;;;;;;;7.65;5.60;;;24.60;96.50;;;;;;5071920;28;20043;-67
2022/09/05 09:18:48;;;;;;;8.13;5.30;;;24.70;96.10;;;;;;5071551;28;20140;-68
2022/09/05 09:21:37;;;;;;;8.13;5.40;;;24.90;96.50;;;;;;5072043;28;20540;-68
2022/09/05 09:24:30;;;;;;;9.13;4.70;;;25.00;96.10;;;;;;5070931;28;20076;-67
2022/09/05 09:27:01;;;;;;;8.25;4.60;;;25.20;95.80;;;;;;5071483;28;20040;-67
2022/09/05 09:29:33;;;;;;;8.82;4.40;;;25.40;96.10;;;;;;5070905;28;20028;-68
2022/09/05 09:32:20;;;;;;;7.40;4.45;;;25.50;95.80;;;;;;5072379;28;20532;-67
2022/09/05 09:34:56;;;;;;;8.80;4.80;;;25.70;95.20;;;;;;5070768;28;20094;-67
2022/09/05 09:38:00;;;;;;;8.35;4.15;;;25.80;95.00;;;;;;5071449;28;20072;-67
2022/09/05 09:40:36;;;;;;;8.32;4.22;;;25.90;95.30;;;;;;5052636;28;20434;-67
2022/09/05 09:43:26;;;;;;;9.52;4.55;;;26.00;94.90;;;;;;5072741;28;20033;-68
2022/09/05 09:46:20;;;;;;;8.02;4.03;;;26.10;94.50;;;;;;5054326;28;20079;-68
2022/09/05 09:48:55;;;;;;;10.23;4.32;;;26.20;94.10;;;;;;5068031;28;20545;-68
2022/09/05 09:51:59;;;;;;;6.85;4.10;;;26.30;94.00;;;;;;5053605;28;20028;-68
2022/09/05 09:55:02;;;;;;;7.13;3.83;;;26.40;93.50;;;;;;5072273;28;20038;-68
2022/09/05 09:57:43;;;;;;;12.63;4.82;;;26.40;92.80;;;;;;5071282;28;20108;-68
2022/09/05 10:00:20;;;;;;;6.82;4.35;;;26.50;93.10;;;;;;5071674;28;20080;-68
2022/09/05 10:03:19;;;;;;;6.05;4.00;;;26.70;93.30;;;;;;5070578;28;20041;-68
2022/09/05 10:05:48;;;;;;;7.40;4.22;;;26.90;91.90;;;;;;5070001;28;20035;-68
2022/09/05 10:08:37;;;;;;;7.30;4.38;;;27.00;92.90;;;;;;5071688;28;20043;-67
2022/09/05 10:11:23;;;;;;;10.13;3.50;;;27.20;92.20;;;;;;5070344;28;20036;-68
2022/09/05 10:14:21;;;;;;;5.28;3.50;;;27.20;91.60;;;;;;5053330;28;20375;-67
2022/09/05 10:16:53;;;;;;;5.95;3.90;;;27.30;91.80;;;;;;5016100;28;20056;-67
2022/09/05 10:19:56;;;;;;;8.95;3.67;;;27.50;92.00;;;;;;5071583;28;20567;-67
2022/09/05 10:22:48;;;;;;;5.05;3.60;;;27.60;91.00;;;;;;5071291;28;20115;-68
2022/09/05 10:25:20;;;;;;;5.38;3.50;;;27.80;91.40;;;;;;5071179;28;20072;-68
2022/09/05 10:28:04;;;;;;;6.45;3.65;;;27.80;91.20;;;;;;5071264;28;20569;-68
2022/09/05 10:30:56;;;;;;;9.85;4.15;;;28.00;91.00;;;;;;5069787;28;20116;-67
2022/09/05 10:33:39;;;;;;;6.13;4.00;;;28.10;90.60;;;;;;5052055;28;20049;-68
2022/09/05 10:36:21;;;;;;;10.18;4.30;;;28.10;90.00;;;;;;5071177;28;20049;-68
2022/09/05 10:39:16;;;;;;;6.03;3.70;;;28.00;89.70;;;;;;5071110;28;20032;-68
2022/09/05 10:41:47;;;;;;;5.38;3.60;;;27.90;90.00;;;;;;5069400;28;20596;-67
2022/09/05 10:44:14;;;;;;;5.07;3.58;;;27.90;90.00;;;;;;5069487;28;20090;-68
2022/09/05 10:46:52;;;;;;;18.88;4.47;;;27.90;90.00;;;;;;5070391;28;20074;-68
2022/09/05 10:49:26;;;;;;;5.05;3.80;;;28.00;89.70;;;;;;5068923;28;20142;-68
2022/09/05 10:52:21;;;;;;;4.70;3.30;;;28.10;89.60;;;;;;5069713;28;20070;-67
2022/09/05 10:55:04;;;;;;;5.60;3.30;;;28.30;90.00;;;;;;5069295;28;20040;-68
2022/09/05 10:57:39;;;;;;;6.55;3.03;;;28.50;89.30;;;;;;5069352;28;20044;-67
2022/09/05 11:00:22;;;;;;;6.50;3.47;;;28.60;87.90;;;;;;5069222;28;20049;-68
2022/09/05 11:02:54;;;;;;;9.63;3.22;;;28.70;87.60;;;;;;5069209;28;20036;-68
2022/09/05 11:05:29;;;;;;;6.35;3.08;;;28.80;85.80;;;;;;5069440;28;20489;-68
2022/09/05 11:08:04;;;;;;;3.47;2.67;;;28.80;85.90;;;;;;5070835;28;20052;-68
2022/09/05 11:10:44;;;;;;;3.65;2.75;;;28.90;86.40;;;;;;5069144;28;20090;-68
2022/09/05 11:13:50;;;;;;;9.43;2.70;;;28.90;85.70;;;;;;5068728;28;20409;-68
2022/09/05 11:16:27;;;;;;;6.07;2.80;;;29.00;83.90;;;;;;5068455;28;20043;-67
2022/09/05 11:19:03;;;;;;;3.67;2.70;;;29.10;84.80;;;;;;5068976;28;20044;-68
2022/09/05 11:21:51;;;;;;;3.70;2.47;;;29.20;83.40;;;;;;5069041;28;20032;-68
2022/09/05 11:24:54;;;;;;;2.72;2.53;;;29.30;83.10;;;;;;5069381;28;20672;-68
2022/09/05 11:27:26;;;;;;;5.88;2.70;;;29.50;82.50;;;;;;5037253;28;20052;-67
2022/09/05 11:29:59;;;;;;;6.13;2.60;;;29.70;82.90;;;;;;5067469;28;20543;-67
2022/09/05 11:33:01;;;;;;;6.70;3.08;;;29.70;81.50;;;;;;5052036;28;20048;-68
2022/09/05 11:35:31;;;;;;;5.38;2.53;;;29.80;81.40;;;;;;5068579;28;20037;-68
2022/09/05 11:38:23;;;;;;;3.97;2.72;;;29.90;82.30;;;;;;5068576;28;20032;-67
2022/09/05 11:41:10;;;;;;;9.43;2.58;;;30.00;80.80;;;;;;5061682;28;20507;-67
2022/09/05 11:43:42;;;;;;;3.13;2.10;;;30.10;80.60;;;;;;5065333;28;20563;-69
2022/09/05 11:46:29;;;;;;;6.75;2.33;;;30.10;80.30;;;;;;5064003;28;20107;-67
2022/09/05 11:49:15;;;;;;;3.70;2.00;;;30.10;78.60;;;;;;5063566;28;20524;-68
2022/09/05 11:52:03;;;;;;;4.05;2.25;;;30.20;80.10;;;;;;5056878;28;21709;-67
2022/09/05 11:54:46;;;;;;;3.47;2.30;;;30.20;78.00;;;;;;5050436;28;20052;-69
2022/09/05 11:57:44;;;;;;;3.63;2.42;;;30.20;78.40;;;;;;5070600;28;20162;-68
2022/09/05 12:00:15;;;;;;;5.47;2.58;;;30.20;78.10;;;;;;5071012;28;20579;-69
2022/09/05 12:03:08;;;;;;;3.43;2.47;;;30.10;79.10;;;;;;5068575;28;20047;-69
2022/09/05 12:06:19;;;;;;;11.07;3.55;;;30.20;78.50;;;;;;5061621;28;20062;-69
2022/09/05 12:09:04;;;;;;;3.33;2.58;;;30.30;77.70;;;;;;5058914;28;20082;-69
2022/09/05 12:12:22;;;;;;;3.50;2.30;;;30.40;77.50;;;;;;5074124;28;20071;-69
2022/09/05 12:14:50;;;;;;;4.78;2.58;;;30.40;76.80;;;;;;5070766;28;20056;-69
2022/09/05 12:17:45;;;;;;;2.90;2.20;;;30.50;77.90;;;;;;5071848;28;20098;-69
2022/09/05 12:20:26;;;;;;;4.93;2.40;;;30.50;77.90;;;;;;5066872;28;20044;-69
2022/09/05 12:23:14;;;;;;;5.82;2.67;;;30.50;77.30;;;;;;5070751;28;20052;-68
2022/09/05 12:25:58;;;;;;;2.75;2.55;;;30.60;76.80;;;;;;5072326;28;20071;-69
2022/09/05 12:28:42;;;;;;;2.22;2.05;;;30.70;75.90;;;;;;5068210;28;20040;-69
2022/09/05 12:31:26;;;;;;;2.65;2.45;;;30.70;74.60;;;;;;5067691;28;20036;-67
2022/09/05 12:33:52;;;;;;;4.80;2.33;;;30.70;74.90;;;;;;5068044;28;20173;-69
2022/09/05 12:36:34;;;;;;;4.22;2.30;;;30.60;74.70;;;;;;5050492;28;20135;-68
2022/09/05 12:39:25;;;;;;;3.97;2.58;;;30.50;75.30;;;;;;5068473;28;20052;-68
2022/09/05 12:42:17;;;;;;;3.35;2.42;;;30.30;75.00;;;;;;5068941;28;20071;-69
2022/09/05 12:45:07;;;;;;;3.13;2.58;;;29.90;75.50;;;;;;5074176;28;20247;-68
2022/09/05 12:47:46;;;;;;;5.03;2.42;;;29.80;75.90;;;;;;5055077;28;20091;-68
2022/09/05 12:50:16;;;;;;;2.83;2.47;;;29.80;76.20;;;;;;5068822;28;20414;-69
2022/09/05 12:52:50;;;;;;;3.63;2.30;;;29.90;75.80;;;;;;5048680;28;20051;-68
2022/09/05 12:55:16;;;;;;;5.50;2.67;;;30.10;75.30;;;;;;5068409;28;20071;-69
2022/09/05 12:57:43;;;;;;;4.97;2.78;;;30.20;75.80;;;;;;5070223;28;20123;-69
2022/09/05 13:00:20;;;;;;;4.28;2.50;;;30.10;74.80;;;;;;5068579;28;20123;-69
2022/09/05 13:02:52;;;;;;;6.68;2.97;;;29.80;74.70;;;;;;5053456;28;20079;-69
2022/09/05 13:05:25;;;;;;;2.67;2.45;;;29.60;74.70;;;;;;5069686;28;20071;-69
2022/09/05 13:07:57;;;;;;;11.02;3.33;;;29.50;74.70;;;;;;5058238;28;20504;-68
2022/09/05 13:10:36;;;;;;;2.95;2.60;;;29.40;75.30;;;;;;5072762;28;20047;-69
2022/09/05 13:13:09;;;;;;;8.95;2.70;;;29.30;75.20;;;;;;5074097;28;20399;-69
2022/09/05 13:15:39;;;;;;;3.45;2.40;;;29.40;76.10;;;;;;5075447;28;20445;-69
2022/09/05 13:18:12;;;;;;;4.35;2.95;;;29.60;76.20;;;;;;5073880;28;20044;-69
2022/09/05 13:20:50;;;;;;;3.95;2.53;;;29.70;75.00;;;;;;5069221;28;20079;-69
2022/09/05 13:23:30;;;;;;;9.23;2.75;;;29.90;75.60;;;;;;5067512;28;20094;-69
2022/09/05 13:26:16;;;;;;;5.25;2.75;;;29.80;75.00;;;;;;5051156;28;20580;-69
2022/09/05 13:28:51;;;;;;;2.88;2.50;;;29.70;75.80;;;;;;5071010;28;20040;-68
2022/09/05 13:31:40;;;;;;;4.10;2.42;;;29.70;76.30;;;;;;5066698;28;20153;-68
2022/09/05 13:34:38;;;;;;;3.08;2.50;;;29.80;75.70;;;;;;5066463;28;20464;-69
2022/09/05 13:37:26;;;;;;;4.38;2.53;;;29.70;74.20;;;;;;5070641;28;20067;-69
2022/09/05 13:40:18;;;;;;;3.60;2.20;;;29.50;74.60;;;;;;5069475;28;20494;-68
2022/09/05 13:42:57;;;;;;;14.83;2.60;;;29.30;74.80;;;;;;5066750;28;20041;-68
2022/09/05 13:45:24;;;;;;;5.90;2.42;;;29.10;75.30;;;;;;5068444;28;20044;-69
2022/09/05 13:48:01;;;;;;;5.30;2.45;;;29.00;75.30;;;;;;5050715;28;20060;-68
2022/09/05 13:50:29;;;;;;;3.17;2.10;;;29.10;75.50;;;;;;5062280;28;20355;-68
2022/09/05 13:53:05;;;;;;;3.50;2.20;;;29.30;75.20;;;;;;5050926;28;20433;-68
2022/09/05 13:55:44;;;;;;;2.47;2.28;;;29.40;75.40;;;;;;5049884;28;20044;-70